createdAt,value
2022-12-04T00:01:47.372Z,9.52
2022-12-04T00:04:15.821Z,16.88
2022-12-04T00:06:44.025Z,12.23
2022-12-04T00:09:13.599Z,12.68
2022-12-04T00:11:41.816Z,13.20
2022-12-04T00:14:10.253Z,14.35
2022-12-04T00:16:38.707Z,11.32
2022-12-04T00:19:06.971Z,14.05
2022-12-04T00:21:35.241Z,12.95
2022-12-04T00:24:03.466Z,13.48
2022-12-04T00:26:32.983Z,15.93
2022-12-04T00:29:01.527Z,14.30
2022-12-04T00:31:31.975Z,11.73
2022-12-04T00:34:02.160Z,11.48
2022-12-04T00:36:31.005Z,11.88
2022-12-04T00:39:01.551Z,13.07
2022-12-04T00:41:32.832Z,20.42
2022-12-04T00:44:01.901Z,11.23
2022-12-04T00:46:31.816Z,15.77
2022-12-04T00:49:02.495Z,13.65
2022-12-04T00:51:31.360Z,11.23
2022-12-04T00:53:59.538Z,13.13
2022-12-04T00:56:29.404Z,15.93
2022-12-04T00:59:01.267Z,15.90
2022-12-04T01:01:30.675Z,15.45
2022-12-04T01:03:58.920Z,14.38
2022-12-04T01:06:29.364Z,10.90
2022-12-04T01:08:59.390Z,12.10
2022-12-04T01:11:29.383Z,12.38
2022-12-04T01:13:59.852Z,13.23
2022-12-04T01:16:30.999Z,8.00
2022-12-04T01:18:59.233Z,14.88
2022-12-04T01:21:27.395Z,15.10
2022-12-04T01:23:55.941Z,16.13
2022-12-04T01:26:24.132Z,16.02
2022-12-04T01:28:52.344Z,13.35
2022-12-04T01:31:22.791Z,15.10
2022-12-04T01:33:52.122Z,13.15
2022-12-04T01:36:22.854Z,13.73
2022-12-04T01:38:51.821Z,11.57
2022-12-04T01:41:22.817Z,17.80
2022-12-04T01:44:09.726Z,21.73
2022-12-04T01:46:39.237Z,15.02
2022-12-04T01:49:09.404Z,17.48
2022-12-04T01:51:42.047Z,14.82
2022-12-04T01:54:14.921Z,13.00
2022-12-04T01:56:46.200Z,14.93
2022-12-04T01:59:17.767Z,22.52
2022-12-04T02:01:54.799Z,15.00
2022-12-04T02:04:23.043Z,10.15
2022-12-04T02:06:52.903Z,21.27
2022-12-04T02:09:26.807Z,9.50
2022-12-04T02:12:04.391Z,21.85
2022-12-04T02:14:38.813Z,13.55
2022-12-04T02:17:17.917Z,12.93
2022-12-04T02:20:06.766Z,15.10
2022-12-04T02:23:14.605Z,16.60
2022-12-04T02:25:49.240Z,13.38
2022-12-04T02:28:26.611Z,14.23
2022-12-04T02:30:59.677Z,15.52
2022-12-04T02:33:33.904Z,14.77
2022-12-04T02:36:12.505Z,15.18
2022-12-04T02:38:45.629Z,17.55
2022-12-04T02:41:18.328Z,14.23
2022-12-04T02:43:52.191Z,12.18
2022-12-04T02:46:27.762Z,11.27
2022-12-04T02:49:00.262Z,13.23
2022-12-04T02:51:33.252Z,14.50
2022-12-04T02:54:06.776Z,14.05
2022-12-04T02:56:40.205Z,9.63
2022-12-04T02:59:22.125Z,11.90
2022-12-04T03:01:53.877Z,13.10
2022-12-04T03:04:26.151Z,9.63
2022-12-04T03:06:59.225Z,19.40
2022-12-04T03:09:34.810Z,12.63
2022-12-04T03:12:11.532Z,8.73
2022-12-04T03:14:45.069Z,9.65
2022-12-04T03:17:17.484Z,14.15
2022-12-04T03:19:52.058Z,9.10
2022-12-04T03:22:21.908Z,5.47
2022-12-04T03:24:52.846Z,10.77
2022-12-04T03:27:27.350Z,9.48
2022-12-04T03:30:02.300Z,14.73
2022-12-04T03:32:36.691Z,8.73
2022-12-04T03:35:12.373Z,7.82
2022-12-04T03:37:48.044Z,11.52
2022-12-04T03:40:26.625Z,6.93
2022-12-04T03:43:00.276Z,5.38
2022-12-04T03:45:37.520Z,9.43
2022-12-04T03:48:09.025Z,11.55
2022-12-04T03:50:39.707Z,7.43
2022-12-04T03:53:14.470Z,9.98
2022-12-04T03:55:48.175Z,13.48
2022-12-04T03:58:21.217Z,8.23
2022-12-04T04:00:54.205Z,5.75
2022-12-04T04:03:25.937Z,7.63
2022-12-04T04:05:58.291Z,8.98
2022-12-04T04:08:33.981Z,8.35
2022-12-04T04:11:08.856Z,6.53
2022-12-04T04:13:59.294Z,4.10
2022-12-04T04:16:50.114Z,7.75
2022-12-04T04:19:38.165Z,9.05
2022-12-04T04:22:28.003Z,11.63
2022-12-04T04:25:00.702Z,8.15
2022-12-04T04:27:28.924Z,12.18
2022-12-04T04:29:57.666Z,7.28
2022-12-04T04:32:36.097Z,8.68
2022-12-04T04:35:12.519Z,7.28
2022-12-04T04:37:47.107Z,10.30
2022-12-04T04:40:21.857Z,10.48
2022-12-04T04:42:56.151Z,4.97
2022-12-04T04:45:28.671Z,12.52
2022-12-04T04:48:04.079Z,8.50
2022-12-04T04:50:34.377Z,8.07
2022-12-04T04:53:06.882Z,7.72
2022-12-04T04:55:36.186Z,5.43
2022-12-04T04:58:08.665Z,6.80
2022-12-04T05:00:37.454Z,9.65
2022-12-04T05:03:07.342Z,9.70
2022-12-04T05:05:35.493Z,11.13
2022-12-04T05:08:03.651Z,5.13
2022-12-04T05:10:32.380Z,6.50
2022-12-04T05:13:00.536Z,4.90
2022-12-04T05:15:28.723Z,4.38
2022-12-04T05:17:56.854Z,8.35
2022-12-04T05:20:25.447Z,6.82
2022-12-04T05:22:53.615Z,6.30
2022-12-04T05:25:21.767Z,6.65
2022-12-04T05:27:49.967Z,7.07
2022-12-04T05:30:18.847Z,7.55
2022-12-04T05:32:46.949Z,3.20
2022-12-04T05:35:15.206Z,5.88
2022-12-04T05:37:45.614Z,4.45
2022-12-04T05:40:14.107Z,3.33
2022-12-04T05:42:42.466Z,4.07
2022-12-04T05:45:11.651Z,4.65
2022-12-04T05:47:41.140Z,4.10
2022-12-04T05:50:10.816Z,7.78
2022-12-04T05:52:39.214Z,5.60
2022-12-04T05:55:09.346Z,5.72
2022-12-04T05:57:37.486Z,7.68
2022-12-04T06:00:06.866Z,6.90
2022-12-04T06:02:39.433Z,3.35
2022-12-04T06:05:08.385Z,8.60
2022-12-04T06:07:36.915Z,6.95
2022-12-04T06:10:06.042Z,4.10
2022-12-04T06:12:35.528Z,4.10
2022-12-04T06:15:03.818Z,4.50
2022-12-04T06:17:32.007Z,3.60
2022-12-04T06:20:00.900Z,3.33
2022-12-04T06:22:29.201Z,5.90
2022-12-04T06:24:57.500Z,3.80
2022-12-04T06:27:27.670Z,5.43
2022-12-04T06:29:58.298Z,3.00
2022-12-04T06:32:27.072Z,4.20
2022-12-04T06:34:56.256Z,6.68
2022-12-04T06:37:26.105Z,5.25
2022-12-04T06:39:54.779Z,3.03
2022-12-04T06:42:23.211Z,9.32
2022-12-04T06:44:51.342Z,6.18
2022-12-04T06:47:20.862Z,2.83
2022-12-04T06:49:51.398Z,2.95
2022-12-04T06:52:19.583Z,3.70
2022-12-04T06:54:48.045Z,6.82
2022-12-04T06:57:16.250Z,4.18
2022-12-04T06:59:44.429Z,3.33
2022-12-04T07:02:12.655Z,3.42
2022-12-04T07:04:42.215Z,3.30
2022-12-04T07:07:10.934Z,6.05
2022-12-04T07:09:39.396Z,7.97
2022-12-04T07:12:08.088Z,3.22
2022-12-04T07:14:36.215Z,5.50
2022-12-04T07:17:04.530Z,6.82
2022-12-04T07:19:32.694Z,7.97
2022-12-04T07:22:02.224Z,8.70
2022-12-04T07:24:30.372Z,6.10
2022-12-04T07:26:58.523Z,10.15
2022-12-04T07:29:26.665Z,4.88
2022-12-04T07:31:54.960Z,4.18
2022-12-04T07:34:23.359Z,4.47
2022-12-04T07:36:51.497Z,4.93
2022-12-04T07:39:21.056Z,6.25
2022-12-04T07:41:49.200Z,3.80
2022-12-04T07:44:17.383Z,6.03
2022-12-04T07:46:45.668Z,7.13
2022-12-04T07:49:14.235Z,3.83
2022-12-04T07:51:42.430Z,3.88
2022-12-04T07:54:11.166Z,7.18
2022-12-04T07:56:40.984Z,8.57
2022-12-04T07:59:09.165Z,5.05
2022-12-04T08:01:37.357Z,6.88
2022-12-04T08:04:05.699Z,7.55
2022-12-04T08:06:35.883Z,8.25
2022-12-04T08:09:09.510Z,12.88
2022-12-04T08:11:38.462Z,12.55
2022-12-04T08:14:09.706Z,7.68
2022-12-04T08:16:38.274Z,8.25
2022-12-04T08:19:06.690Z,7.20
2022-12-04T08:21:35.087Z,8.52
2022-12-04T08:24:03.561Z,9.85
2022-12-04T08:26:33.459Z,16.63
2022-12-04T08:29:02.454Z,12.35
2022-12-04T08:31:33.947Z,11.48
2022-12-04T08:34:04.727Z,15.45
2022-12-04T08:36:33.587Z,28.33
2022-12-04T08:39:01.923Z,43.45
2022-12-04T08:41:30.127Z,36.33
2022-12-04T08:43:58.888Z,31.23
2022-12-04T08:46:28.373Z,23.55
2022-12-04T08:48:58.219Z,30.60
2022-12-04T08:51:29.132Z,27.05
2022-12-04T08:53:58.591Z,20.05
2022-12-04T08:56:28.236Z,15.38
2022-12-04T08:58:57.402Z,18.25
2022-12-04T09:01:26.617Z,18.63
2022-12-04T09:03:55.046Z,17.38
2022-12-04T09:06:25.119Z,26.42
2022-12-04T09:08:54.945Z,27.60
2022-12-04T09:11:25.935Z,21.10
2022-12-04T09:13:54.820Z,23.80
2022-12-04T09:16:24.682Z,20.95
2022-12-04T09:18:53.351Z,21.90
2022-12-04T09:21:22.766Z,26.45
2022-12-04T09:23:52.519Z,24.48
2022-12-04T09:26:24.487Z,31.42
2022-12-04T09:28:53.723Z,22.80
2022-12-04T09:31:24.284Z,20.08
2022-12-04T09:33:52.802Z,15.70
2022-12-04T09:36:21.195Z,25.33
2022-12-04T09:38:51.091Z,12.00
2022-12-04T09:41:34.867Z,20.35
2022-12-04T09:44:07.355Z,20.35
2022-12-04T09:46:39.442Z,17.50
2022-12-04T09:49:13.907Z,19.15
2022-12-04T09:51:42.936Z,19.85
2022-12-04T09:54:17.594Z,16.38
2022-12-04T09:56:55.329Z,26.35
2022-12-04T09:59:25.696Z,23.95
2022-12-04T10:01:59.922Z,19.52
2022-12-04T10:04:28.173Z,19.15
2022-12-04T10:07:05.766Z,27.20
2022-12-04T10:09:44.774Z,24.85
2022-12-04T10:12:23.429Z,23.50
2022-12-04T10:15:01.284Z,27.88
2022-12-04T10:17:53.224Z,34.78
2022-12-04T10:20:35.913Z,22.42
2022-12-04T10:23:14.167Z,19.80
2022-12-04T10:25:43.821Z,25.55
2022-12-04T10:28:23.709Z,28.75
2022-12-04T10:30:53.507Z,18.65
2022-12-04T10:33:25.531Z,22.17
2022-12-04T10:35:55.939Z,24.15
2022-12-04T10:38:33.967Z,17.67
2022-12-04T10:41:10.252Z,20.15
2022-12-04T10:43:46.784Z,14.00
2022-12-04T10:46:17.124Z,22.80
2022-12-04T10:48:48.435Z,18.10
2022-12-04T10:51:18.035Z,21.02
2022-12-04T10:53:49.394Z,23.20
2022-12-04T10:56:20.261Z,17.48
2022-12-04T10:58:59.998Z,22.50
2022-12-04T11:01:29.688Z,21.23
2022-12-04T11:04:02.944Z,19.90
2022-12-04T11:06:31.809Z,25.80
2022-12-04T11:09:00.886Z,17.13
2022-12-04T11:11:32.033Z,22.05
2022-12-04T11:14:07.259Z,36.55
2022-12-04T11:16:38.645Z,33.00
2022-12-04T11:19:21.446Z,30.27
2022-12-04T11:21:49.860Z,30.98
2022-12-04T11:24:24.444Z,32.67
2022-12-04T11:26:53.496Z,32.42
2022-12-04T11:29:30.187Z,34.90
2022-12-04T11:32:02.747Z,33.53
2022-12-04T11:34:37.856Z,45.63
2022-12-04T11:37:07.612Z,35.28
2022-12-04T11:39:38.206Z,33.55
2022-12-04T11:42:07.900Z,35.17
2022-12-04T11:44:37.784Z,32.70
2022-12-04T11:47:07.967Z,35.92
2022-12-04T11:49:40.872Z,32.33
2022-12-04T11:52:26.831Z,31.00
2022-12-04T11:55:02.384Z,35.30
2022-12-04T11:57:39.282Z,33.60
2022-12-04T12:00:14.911Z,39.88
2022-12-04T12:02:56.643Z,29.77
2022-12-04T12:05:48.297Z,33.60
2022-12-04T12:08:29.409Z,33.83
2022-12-04T12:11:04.760Z,39.35
2022-12-04T12:13:39.351Z,41.58
2022-12-04T12:16:18.014Z,53.72
2022-12-04T12:19:14.145Z,51.70
2022-12-04T12:21:52.347Z,56.83
2022-12-04T12:24:26.893Z,49.63
2022-12-04T12:27:05.653Z,49.17
2022-12-04T12:29:52.582Z,50.85
2022-12-04T12:32:37.580Z,58.38
2022-12-04T12:35:14.239Z,60.08
2022-12-04T12:37:49.453Z,53.00
2022-12-04T12:40:30.199Z,58.70
2022-12-04T12:43:02.395Z,72.82
2022-12-04T12:45:39.905Z,57.13
2022-12-04T12:48:17.372Z,52.40
2022-12-04T12:51:08.983Z,45.50
2022-12-04T12:53:44.475Z,62.67
2022-12-04T12:56:13.429Z,51.17
2022-12-04T12:58:45.208Z,55.55
2022-12-04T13:01:18.235Z,58.60
2022-12-04T13:03:53.467Z,52.40
2022-12-04T13:06:26.588Z,44.42
2022-12-04T13:09:06.591Z,49.65
2022-12-04T13:11:35.520Z,49.35
2022-12-04T13:14:04.975Z,42.05
2022-12-04T13:16:37.742Z,48.35
2022-12-04T13:19:17.500Z,40.45
2022-12-04T13:21:50.470Z,57.03
2022-12-04T13:24:57.714Z,45.05
2022-12-04T13:27:36.344Z,46.95
2022-12-04T13:30:14.376Z,51.78
2022-12-04T13:33:36.568Z,42.60
2022-12-04T13:36:19.025Z,43.67
2022-12-04T13:38:59.581Z,51.28
2022-12-04T13:41:29.278Z,50.22
2022-12-04T13:44:02.843Z,50.88
2022-12-04T13:46:37.436Z,46.35
2022-12-04T13:49:10.961Z,46.25
2022-12-04T13:51:41.783Z,39.15
2022-12-04T13:54:29.341Z,55.97
2022-12-04T13:57:11.488Z,48.22
2022-12-04T13:59:41.818Z,57.20
2022-12-04T14:02:26.540Z,57.70
2022-12-04T14:04:58.896Z,53.65
2022-12-04T14:07:31.928Z,61.08
2022-12-04T14:10:04.698Z,60.83
2022-12-04T14:12:36.586Z,64.22
2022-12-04T14:15:07.264Z,58.47
2022-12-04T14:17:37.109Z,64.13
2022-12-04T14:20:08.904Z,46.83
2022-12-04T14:22:45.617Z,54.22
2022-12-04T14:25:34.306Z,48.97
2022-12-04T14:28:14.887Z,68.82
2022-12-04T14:30:45.275Z,58.42
2022-12-04T14:33:21.555Z,51.90
2022-12-04T14:35:59.125Z,51.00
2022-12-04T14:38:33.940Z,49.90
2022-12-04T14:41:03.126Z,60.67
2022-12-04T14:43:36.504Z,36.92
2022-12-04T14:46:10.457Z,61.25
2022-12-04T14:48:44.159Z,48.63
2022-12-04T14:51:20.067Z,41.33
2022-12-04T14:53:57.279Z,57.90
2022-12-04T14:56:41.616Z,37.97
2022-12-04T14:59:17.960Z,48.35
2022-12-04T15:01:48.418Z,48.15
2022-12-04T15:04:24.085Z,49.33
2022-12-04T15:06:59.706Z,47.33
2022-12-04T15:09:47.580Z,44.33
2022-12-04T15:12:37.192Z,44.10
2022-12-04T15:15:16.267Z,48.63
2022-12-04T15:17:44.819Z,44.45
2022-12-04T15:20:17.866Z,38.75
2022-12-04T15:22:46.289Z,46.70
2022-12-04T15:25:21.795Z,45.85
2022-12-04T15:27:54.030Z,37.30
2022-12-04T15:30:24.084Z,41.13
2022-12-04T15:32:54.464Z,48.10
2022-12-04T15:35:27.374Z,37.28
2022-12-04T15:37:56.555Z,45.65
2022-12-04T15:40:29.644Z,50.25
2022-12-04T15:43:16.738Z,59.97
2022-12-04T15:45:45.775Z,29.90
2022-12-04T15:48:24.858Z,37.45
2022-12-04T15:50:58.377Z,28.88
2022-12-04T15:53:29.269Z,32.65
2022-12-04T15:56:03.634Z,31.45
2022-12-04T15:58:33.578Z,23.77
2022-12-04T16:01:04.594Z,27.45
2022-12-04T16:03:36.960Z,23.20
2022-12-04T16:06:16.006Z,26.65
2022-12-04T16:08:46.272Z,34.33
2022-12-04T16:11:30.984Z,36.72
2022-12-04T16:14:16.282Z,40.20
2022-12-04T16:16:46.825Z,40.40
2022-12-04T16:19:19.216Z,37.60
2022-12-04T16:21:47.630Z,31.50
2022-12-04T16:24:15.880Z,29.73
2022-12-04T16:26:45.487Z,30.70
2022-12-04T16:29:13.606Z,29.85
2022-12-04T16:31:41.846Z,32.30
2022-12-04T16:34:12.264Z,28.45
2022-12-04T16:36:41.909Z,36.10
2022-12-04T16:39:10.220Z,39.47
2022-12-04T16:41:38.381Z,29.65
2022-12-04T16:44:15.036Z,28.40
2022-12-04T16:46:45.783Z,34.80
2022-12-04T16:49:14.730Z,31.40
2022-12-04T16:51:46.926Z,37.90
2022-12-04T16:54:15.170Z,32.38
2022-12-04T16:56:43.434Z,25.38
2022-12-04T16:59:12.967Z,28.85
2022-12-04T17:01:45.173Z,32.08
2022-12-04T17:04:13.617Z,30.60
2022-12-04T17:06:42.323Z,32.25
2022-12-04T17:09:10.780Z,32.17
2022-12-04T17:11:39.323Z,31.00
2022-12-04T17:14:08.030Z,25.92
2022-12-04T17:16:41.284Z,34.97
2022-12-04T17:19:10.192Z,32.70
2022-12-04T17:21:38.431Z,29.15
2022-12-04T17:24:08.161Z,28.95
2022-12-04T17:26:36.329Z,33.88
2022-12-04T17:29:05.036Z,34.75
2022-12-04T17:31:33.548Z,31.90
2022-12-04T17:34:03.311Z,29.08
2022-12-04T17:36:31.685Z,31.65
2022-12-04T17:39:01.946Z,31.48
2022-12-04T17:41:30.204Z,31.10
2022-12-04T17:44:01.080Z,34.28
2022-12-04T17:46:29.337Z,30.23
2022-12-04T17:49:00.553Z,28.58
2022-12-04T17:51:35.018Z,38.60
2022-12-04T17:54:03.341Z,28.63
2022-12-04T17:56:31.590Z,31.77
2022-12-04T17:59:00.070Z,27.15
2022-12-04T18:01:30.083Z,27.05
2022-12-04T18:04:01.908Z,29.92
2022-12-04T18:06:31.600Z,32.13
2022-12-04T18:09:02.062Z,31.23
2022-12-04T18:11:32.296Z,29.80
2022-12-04T18:14:04.827Z,31.58
2022-12-04T18:16:38.229Z,29.35
2022-12-04T18:19:06.802Z,32.67
2022-12-04T18:21:35.474Z,34.38
2022-12-04T18:24:06.189Z,26.90
2022-12-04T18:26:36.419Z,37.22
2022-12-04T18:29:05.358Z,37.33
2022-12-04T18:31:34.580Z,34.60
2022-12-04T18:34:03.240Z,29.17
2022-12-04T18:36:32.545Z,25.60
2022-12-04T18:39:02.978Z,27.60
2022-12-04T18:41:32.713Z,18.70
2022-12-04T18:44:02.375Z,28.42
2022-12-04T18:46:31.262Z,24.95
2022-12-04T18:49:00.295Z,27.40
2022-12-04T18:51:30.914Z,25.50
2022-12-04T18:54:01.764Z,21.10
2022-12-04T18:56:33.810Z,38.03
2022-12-04T18:59:05.821Z,32.40
2022-12-04T19:01:34.131Z,40.83
2022-12-04T19:04:04.937Z,35.58
2022-12-04T19:06:34.659Z,27.90
2022-12-04T19:09:05.393Z,23.38
2022-12-04T19:11:36.037Z,19.88
2022-12-04T19:14:12.492Z,22.38
2022-12-04T19:16:44.839Z,24.80
2022-12-04T19:19:14.103Z,27.17
2022-12-04T19:21:42.510Z,24.52
2022-12-04T19:24:11.461Z,22.45
2022-12-04T19:26:41.674Z,28.95
2022-12-04T19:29:12.867Z,24.95
2022-12-04T19:31:41.158Z,25.42
2022-12-04T19:34:09.436Z,24.00
2022-12-04T19:36:37.944Z,24.60
2022-12-04T19:39:07.097Z,25.20
2022-12-04T19:41:37.278Z,20.15
2022-12-04T19:44:26.328Z,23.23
2022-12-04T19:46:55.663Z,22.27
2022-12-04T19:49:23.885Z,22.20
2022-12-04T19:51:52.284Z,22.35
2022-12-04T19:54:21.801Z,27.65
2022-12-04T19:56:52.531Z,23.33
2022-12-04T19:59:22.210Z,23.90
2022-12-04T20:01:50.538Z,29.63
2022-12-04T20:04:18.931Z,29.70
2022-12-04T20:06:47.862Z,30.10
2022-12-04T20:09:19.235Z,24.90
2022-12-04T20:11:47.815Z,20.27
2022-12-04T20:14:16.072Z,22.92
2022-12-04T20:16:46.369Z,20.42
2022-12-04T20:19:16.996Z,19.13
2022-12-04T20:21:46.400Z,18.13
2022-12-04T20:24:16.723Z,15.45
2022-12-04T20:26:47.080Z,16.67
2022-12-04T20:29:19.103Z,21.88
2022-12-04T20:31:48.896Z,26.25
2022-12-04T20:34:19.349Z,16.80
2022-12-04T20:36:49.027Z,21.90
2022-12-04T20:39:19.053Z,22.83
2022-12-04T20:41:47.537Z,24.90
2022-12-04T20:44:17.689Z,23.13
2022-12-04T20:46:46.153Z,21.35
2022-12-04T20:49:21.640Z,19.73
2022-12-04T20:51:52.023Z,26.08
2022-12-04T20:54:22.780Z,20.63
2022-12-04T20:56:53.096Z,20.70
2022-12-04T20:59:23.794Z,22.23
2022-12-04T21:01:52.700Z,17.67
2022-12-04T21:04:23.070Z,19.25
2022-12-04T21:06:51.405Z,25.58
2022-12-04T21:09:21.596Z,18.67
2022-12-04T21:11:51.532Z,27.45
2022-12-04T21:14:38.579Z,20.77
2022-12-04T21:17:09.438Z,18.73
2022-12-04T21:19:39.619Z,18.30
2022-12-04T21:22:07.922Z,18.90
2022-12-04T21:24:38.749Z,24.05
2022-12-04T21:27:09.094Z,20.98
2022-12-04T21:29:37.478Z,22.88
2022-12-04T21:32:06.673Z,27.02
2022-12-04T21:34:35.274Z,15.30
2022-12-04T21:37:04.828Z,17.88
2022-12-04T21:39:33.446Z,22.25
2022-12-04T21:42:18.815Z,22.83
2022-12-04T21:44:46.958Z,16.75
2022-12-04T21:47:15.136Z,23.63
2022-12-04T21:49:43.282Z,25.45
2022-12-04T21:52:13.011Z,26.30
2022-12-04T21:54:41.187Z,30.00
2022-12-04T21:57:09.465Z,27.55
2022-12-04T21:59:37.702Z,20.73
2022-12-04T22:02:05.942Z,26.27
2022-12-04T22:04:34.773Z,28.50
2022-12-04T22:07:02.944Z,23.50
2022-12-04T22:09:32.538Z,18.77
2022-12-04T22:12:00.966Z,22.27
2022-12-04T22:14:30.573Z,33.28
2022-12-04T22:16:59.603Z,29.00
2022-12-04T22:19:27.877Z,35.00
2022-12-04T22:21:55.992Z,36.67
2022-12-04T22:24:24.181Z,40.88
2022-12-04T22:26:54.833Z,32.25
2022-12-04T22:32:11.163Z,50.67
2022-12-04T22:34:39.931Z,49.28
2022-12-04T22:37:08.118Z,47.92
2022-12-04T22:39:36.298Z,44.60
2022-12-04T22:42:05.936Z,41.25
2022-12-04T22:44:34.673Z,36.22
2022-12-04T22:47:03.415Z,40.25
2022-12-04T22:49:31.585Z,30.58
2022-12-04T22:52:00.733Z,46.05
2022-12-04T22:54:28.967Z,36.88
2022-12-04T22:56:57.179Z,34.75
2022-12-04T22:59:28.815Z,31.25
2022-12-04T23:01:57.059Z,37.55
2022-12-04T23:04:25.205Z,40.13
2022-12-04T23:06:53.485Z,42.50
2022-12-04T23:09:21.843Z,44.88
2022-12-04T23:11:52.308Z,32.50
2022-12-04T23:14:20.876Z,38.65
2022-12-04T23:16:51.653Z,44.65
2022-12-04T23:19:21.071Z,42.35
2022-12-04T23:21:56.389Z,35.00
2022-12-04T23:24:25.764Z,40.53
2022-12-04T23:26:54.114Z,38.95
2022-12-04T23:29:52.713Z,32.03
2022-12-04T23:32:11.825Z,38.78
2022-12-04T23:34:40.744Z,39.60
2022-12-04T23:37:10.263Z,33.70
2022-12-04T23:39:38.424Z,39.00
2022-12-04T23:42:06.691Z,38.22
2022-12-04T23:44:35.577Z,32.05
2022-12-04T23:47:04.293Z,33.88
2022-12-04T23:49:34.297Z,33.97
2022-12-04T23:52:02.682Z,34.70
2022-12-04T23:54:34.990Z,31.45
2022-12-04T23:57:03.382Z,44.42
2022-12-04T23:59:31.539Z,32.55
